U-Tapao International Airport
VTBU : now visible

Aeroporto :











RITROVATECI SU...

 
LOGIN :

Iscrizione | Disclaimer

   EN    FR    IT 

 









Sommario :    VFR   VFR Marginale   IFR   IFR Intensivo   IFR Molto Intensivo
Visibilità : 
Base nubi : 
>= 8 km
>= 3000ft
5 / 8 km
1000 / 3000 ft
1500m / 5 km
500 / 1000 ft
800 / 1500m
200 / 500 ft
< 800m
< 200 ft
Simboli :   Temporali  Nebbia  Neve Forte  Precipitazioni Forti  Vento > 20 kt






- Altitudine del aeroporto : 42 ft
- Codice IATA : UTP


VTBU - U-Tapao International

ULTIMO METAR :
  • 280600Z 17016KT 7000 FEW020CB SCT100 29/23 Q1011 NOSIG

METARs OBSOLETI :
  • 280530Z 17014KT 6000 VCSH FEW018CB SCT100 29/23 Q1012 NOSIG
  • 280500Z 16010KT 6000 VCSH FEW018CB SCT100 30/22 Q1012 NOSIG
  • 280430Z 15010KT 6000 -SHRA FEW018CB SCT100 30/22 Q1012 NOSIG
  • 280400Z 15010KT 6000 FEW020CB SCT100 30/21 Q1013 NOSIG
  • 280330Z 18010KT 6000 FEW020CB SCT100 30/23 Q1013 NOSIG

TAF TAF VTBU
Valido dal 28 a 06 ore il 29 a 06 ore UTC


280500Z 2806/2906 19010KT 7000 FEW020
TEMPO 2806/2811 VRB14KT 5000 TSRA FEW018CB SCT035
BECMG 2815/2817 35004KT
BECMG 2901/2903 18010KT



MetMap, La meteo Aeronautica in un colpo d'occhio ! - Copyright ORBIFLY Dicembre 2007 - Disclaimer

ORBIFLY MET'MAP TEAM :

Programmazione e sviluppo : Alexandra Zaïnal
Concezione : Baudouin d'Aumeries
Aiuto per la programmazione : Marc-Olivier Méhu
Supporto tecnico e logistico : Manuel Goepfert
Aiuto per la traduzione : Arnaldo La Scala

Contatto : metmap@orbifly.com




FONTI E CREDITI :

   NOAA       Earth
Advisory